Thunder radar more information blitzortung!


Rain radar  rain snow radar



Ingen spesiell oppmerksomhet nødvendig.    Det er ingen advarsler

Nearby METAR Reports

   
ENZV - Stavanger
Oppdatert: Aug 23 2019 3:50 am
For det meste Overskyet  
For det meste Overskyet  
   Vind: SSV 6.7 m/s
Vind: SSV 6.7 m/s
Temperatur: 16°C
Duggpunkt: 15°C
Luftfuktighet: 94%
Barometer: 1014 hPa
Skyer: Mostly Cloudy
Sikt: 9 km
Detaljer skyer: Delvis overskyet 900 ft,
For det meste Overskyet 1400 ft,
For det meste Overskyet 5500 ft
ENZV 230150Z 20013KT 9000 SCT009 BKN014 BKN055 16/15 Q1014
ENCN - Kristiansand
Oppdatert: Aug 23 2019 4:20 am
Overskyet  
Overskyet  
   Vind: SV 5.7 m/s
Vind: SV 5.7 m/s
Temperatur: 16°C
Duggpunkt: 16°C
Luftfuktighet: 100%
Barometer: 1016 hPa
Skyer: Overcast
Sikt: More than 10 km
Detaljer skyer: Noen skyer 600 ft,
Overskyet 1100 ft
ENCN 230220Z AUTO 22011KT 9999 FEW006/// OVC011/// 16/16 Q1016
ENBR - Bergen
Oppdatert: Aug 23 2019 3:50 am
For det meste Overskyet  
For det meste Overskyet  
   Vind: SV 6.7 m/s
Vind: SV 6.7 m/s
Temperatur: 15°C
Duggpunkt: 13°C
Luftfuktighet: 88%
Barometer: 1011 hPa
Skyer: Mostly Cloudy
Sikt: More than 10 km
Detaljer skyer: Delvis overskyet 1100 ft,
For det meste Overskyet 1500 ft
ENBR 230150Z 22013KT 9999 SCT011 BKN015 15/13 Q1011 RMK WIND 1200FT 23020KT
ENGM - Oslo
Oppdatert: Aug 23 2019 4:20 am
For det meste Overskyet  
For det meste Overskyet  
   Vind: Sør 4.6 m/s
Vind: Sør 4.6 m/s
Temperatur: 11°C
Duggpunkt: 10°C
Luftfuktighet: 94%
Barometer: 1015 hPa
Skyer: Mostly Cloudy
Sikt: More than 10 km
Detaljer skyer: For det meste Overskyet 1200 ft
ENGM 230220Z 18009KT 9999 BKN012 11/10 Q1015
ENVA - Trondheim
Oppdatert: Aug 23 2019 3:50 am
For det meste Overskyet  
For det meste Overskyet  
   Vind: ØSØ 1.5 m/s
Vind: ØSØ 1.5 m/s
Temperatur: 11°C
Duggpunkt: 10°C
Luftfuktighet: 94%
Barometer: 1012 hPa
Skyer: Mostly Cloudy
Sikt: More than 10 km
Detaljer skyer: For det meste Overskyet 3600 ft
ENVA 230150Z 11003KT 9999 BKN036 11/10 Q1012 RMK WIND 670FT 32002KT
ENTC - Tromsø
Oppdatert: Aug 23 2019 4:20 am
For det meste Overskyet  
For det meste Overskyet  
   Vind: NNØ 4.1 m/s
Vind: NNØ 4.1 m/s
Temperatur: 9°C
Wind Chill: 7°C
Duggpunkt: 7°C
Luftfuktighet: 87%
Barometer: 1014 hPa
Skyer: Mostly Cloudy
Sikt: More than 10 km
Detaljer skyer: Noen skyer 900 ft,
For det meste Overskyet 7400 ft
ENTC 230220Z 03008KT 9999 FEW009 BKN074 09/07 Q1014 RMK WIND 2600FT 19009KT

Script utviklet av  Saratoga-weather.org Tilpasset for tamplaten av  Weerstation Leuven

Du finner vår vær info også på:

European Weather Network

WeatherCloud

Weather Underground

AWEKAS

HAMweather, WeatherForYou, PWS Weather

Utrustning vi bruker:

vær-station
Davis VP2

vær-programmet
Weather Display

Davis VP2

Weather Display